Mississippi Star — 9HA2441 — position and weather

sailwx.info

Track history (hours):
 
Tides and Currents Weather Stations Pressure Air Temp Water Temp Dewpoint Dewpoint Depression Visibility Wind Speed Wind Dir Waves Ship Positions

Mississippi Star

Last reported at 2015-Mar-30 22:33 UTC. Time now 2015-Mar-30 23:04 UTC.
Position N 51°27' E 001°57'.

Length 128 m; draft 6.3 m.

Type: Ship. MMSI: 248621000.

Date/timePositionNaut miles runAvg speedWind from/ knotsBaromVisibWave heightAir tempDewpointWater temp
2015-Mar-30 22:33N 51°27' E 001°57'8 8.1
2015-Mar-30 21:33N 51°33' E 002°06'9 9.1
2015-Mar-30 20:33N 51°40' E 002°16'4510.9
2015-Mar-30 16:27N 52°03' E 003°19'1011.5
2015-Mar-30 15:33N 52°03' E 003°35'1110.9
2015-Mar-30 14:33N 52°02' E 003°53'1010.1
2015-Mar-30 13:34N 51°58' E 004°08'9 9.5
2015-Mar-30 12:34N 51°54' E 004°21'0 0.5
2015-Mar-30 11:32N 51°54' E 004°22'0 0.0
2015-Mar-30 10:32N 51°54' E 004°22'0 0.0
2015-Mar-30 09:32N 51°54' E 004°22'0 0.0
2015-Mar-30 08:32N 51°54' E 004°22'0 0.0
2015-Mar-30 07:32N 51°54' E 004°22'0 0.0
2015-Mar-30 06:32N 51°54' E 004°22'0 0.0
2015-Mar-30 05:31N 51°54' E 004°22'0 0.0
2015-Mar-30 04:31N 51°54' E 004°22'0 0.0
2015-Mar-30 03:31N 51°54' E 004°22'0 0.0
2015-Mar-30 02:31N 51°54' E 004°22'0 0.0
2015-Mar-30 01:29N 51°54' E 004°22'0 0.0
2015-Mar-30 00:31N 51°54' E 004°22'0 0.0
2015-Mar-29 23:31N 51°54' E 004°22'0 0.0
2015-Mar-29 22:31N 51°54' E 004°22'0 0.0
2015-Mar-29 21:25N 51°54' E 004°22'0 0.0
2015-Mar-29 20:31N 51°54' E 004°22'0 0.0
2015-Mar-29 19:25N 51°54' E 004°22'0 0.0
2015-Mar-29 18:31N 51°54' E 004°22'0 0.0
2015-Mar-29 17:28N 51°54' E 004°22'0 0.0
2015-Mar-29 16:29N 51°54' E 004°22'0 0.0
2015-Mar-29 15:28N 51°54' E 004°22'0 0.0
2015-Mar-29 14:31N 51°54' E 004°22'0 0.0
2015-Mar-29 13:31N 51°54' E 004°22'0 0.0
2015-Mar-29 12:16N 51°54' E 004°22'0 0.1
2015-Mar-29 11:34N 51°54' E 004°22'7 6.7
2015-Mar-29 10:33N 51°56' E 004°12'1211.8
2015-Mar-29 09:34N 52°01' E 003°54'1111.3
2015-Mar-29 08:33N 51°56' E 003°37'2 1.4
2015-Mar-29 07:20N 51°55' E 003°36'0 0.0
2015-Mar-29 06:17N 51°55' E 003°36'0 0.0
2015-Mar-29 05:29N 51°55' E 003°36'0 0.0
2015-Mar-29 04:11N 51°55' E 003°36'0 0.0
2015-Mar-29 00:26N 51°55' E 003°36'0 0.0
2015-Mar-28 22:26N 51°55' E 003°36'0 0.0
2015-Mar-28 21:29N 51°55' E 003°36'0 0.0
2015-Mar-28 20:17N 51°55' E 003°36'0 0.0
2015-Mar-28 19:20N 51°55' E 003°36'0 0.0
2015-Mar-28 18:23N 51°55' E 003°36'0 0.0
2015-Mar-28 17:29N 51°55' E 003°36'0 0.0
2015-Mar-28 16:26N 51°55' E 003°36'0 0.1
2015-Mar-28 15:32N 51°55' E 003°36'10 9.1
2015-Mar-28 14:29N 51°54' E 003°21'4210.8
2015-Mar-28 10:33N 51°34' E 002°20'1212.5
2015-Mar-28 09:33N 51°24' E 002°08'1211.9
2015-Mar-28 08:33N 51°13' E 001°60'1313.2
2015-Mar-28 07:34N 51°06' E 001°42'1414.1
2015-Mar-28 06:33N 50°56' E 001°27'234 4.7
2015-Mar-26 04:32N 53°32' W 003°18'1010.4
2015-Mar-26 03:33N 53°27' W 003°02'9 8.5
2015-Mar-26 02:33N 53°19' W 002°57'0 0.1
2015-Mar-26 01:33N 53°19' W 002°57'3 3.4
2015-Mar-26 00:33N 53°17' W 002°52'0 0.0
2015-Mar-24 04:33N 53°17' W 002°52'1 0.1
2015-Mar-23 15:34N 53°17' W 002°53'3 3.0
2015-Mar-23 14:33N 53°19' W 002°57'4 3.9
2015-Mar-23 13:34N 53°23' W 002°60'9 9.5
2015-Mar-23 12:34N 53°31' W 003°07'8 8.4
2015-Mar-23 11:33N 53°30' W 003°21'3 3.0
2015-Mar-23 10:31N 53°28' W 003°25'0 0.0
2015-Mar-23 09:25N 53°28' W 003°25'0 0.0
2015-Mar-23 08:31N 53°28' W 003°25'0 0.0
2015-Mar-23 07:25N 53°28' W 003°25'0 0.1
2015-Mar-23 06:31N 53°28' W 003°26'0 0.1
2015-Mar-23 05:31N 53°28' W 003°26'0 0.0
2015-Mar-23 04:25N 53°28' W 003°26'0 0.0
2015-Mar-23 03:31N 53°28' W 003°26'0 0.0
2015-Mar-23 02:31N 53°28' W 003°26'0 0.1
2015-Mar-23 01:31N 53°28' W 003°26'0 0.1
2015-Mar-23 00:32N 53°28' W 003°26'0 0.0
2015-Mar-22 23:31N 53°28' W 003°26'0 0.0
2015-Mar-22 22:31N 53°28' W 003°26'0 0.0
2015-Mar-22 21:25N 53°28' W 003°26'0 0.0
2015-Mar-22 20:31N 53°28' W 003°26'0 0.1
2015-Mar-22 19:25N 53°28' W 003°26'0 0.1
2015-Mar-22 18:25N 53°28' W 003°26'0 0.0
2015-Mar-22 17:31N 53°28' W 003°26'0 0.0
2015-Mar-22 16:31N 53°28' W 003°26'0 0.0
2015-Mar-22 15:31N 53°28' W 003°26'6 4.9
2015-Mar-22 14:16N 53°31' W 003°35'5812.1
2015-Mar-22 09:30N 53°57' W 005°02'1212.5
2015-Mar-22 08:30N 54°09' W 005°03'1212.5
2015-Mar-22 07:32N 54°21' W 005°05'1212.7
2015-Mar-22 06:33N 54°33' W 005°09'1111.0
2015-Mar-22 05:33N 54°44' W 005°14'1010.2
2015-Mar-22 04:33N 54°53' W 005°22'9 9.2
2015-Mar-22 03:33N 55°02' W 005°25'1110.7
2015-Mar-22 02:33N 55°12' W 005°18'1212.1
2015-Mar-22 01:33N 55°22' W 005°04'14 4.7
2015-Mar-21 22:33N 55°36' W 005°07'1 0.1
2015-Mar-21 14:17N 55°36' W 005°05'810.6
2015-Mar-21 13:33N 55°43' W 004°59'1212.2
2015-Mar-21 12:33N 55°55' W 004°55'9 9.1
2015-Mar-21 11:33N 55°56' W 004°39'9 8.9
2015-Mar-21 10:33N 55°54' W 004°24'0 0.1
2015-Mar-21 09:32N 55°54' W 004°24'0 0.0
2015-Mar-21 08:29N 55°54' W 004°24'0 0.0
2015-Mar-21 04:32N 55°54' W 004°24'  
Track history (hours):
 
Tides and Currents Weather Stations Pressure Air Temp Water Temp Dewpoint Dewpoint Depression Visibility Wind Speed Wind Dir Waves Ship Positions

Mississippi Star

Last reported at 2015-Mar-30 22:33 UTC. Time now 2015-Mar-30 23:04 UTC.
Position N 51°27' E 001°57'.

Length 128 m; draft 6.3 m.

Type: Ship. MMSI: 248621000.

Date/timePositionNaut miles runAvg speedWind from/ knotsBaromVisibWave heightAir tempDewpointWater temp
2015-Mar-30 22:33N 51°27' E 001°57'8 8.1
2015-Mar-30 21:33N 51°33' E 002°06'9 9.1
2015-Mar-30 20:33N 51°40' E 002°16'4510.9
2015-Mar-30 16:27N 52°03' E 003°19'1011.5
2015-Mar-30 15:33N 52°03' E 003°35'1110.9
2015-Mar-30 14:33N 52°02' E 003°53'1010.1
2015-Mar-30 13:34N 51°58' E 004°08'9 9.5
2015-Mar-30 12:34N 51°54' E 004°21'0 0.5
2015-Mar-30 11:32N 51°54' E 004°22'0 0.0
2015-Mar-30 10:32N 51°54' E 004°22'0 0.0
2015-Mar-30 09:32N 51°54' E 004°22'0 0.0
2015-Mar-30 08:32N 51°54' E 004°22'0 0.0
2015-Mar-30 07:32N 51°54' E 004°22'0 0.0
2015-Mar-30 06:32N 51°54' E 004°22'0 0.0
2015-Mar-30 05:31N 51°54' E 004°22'0 0.0
2015-Mar-30 04:31N 51°54' E 004°22'0 0.0
2015-Mar-30 03:31N 51°54' E 004°22'0 0.0
2015-Mar-30 02:31N 51°54' E 004°22'0 0.0
2015-Mar-30 01:29N 51°54' E 004°22'0 0.0
2015-Mar-30 00:31N 51°54' E 004°22'0 0.0
2015-Mar-29 23:31N 51°54' E 004°22'0 0.0
2015-Mar-29 22:31N 51°54' E 004°22'0 0.0
2015-Mar-29 21:25N 51°54' E 004°22'0 0.0
2015-Mar-29 20:31N 51°54' E 004°22'0 0.0
2015-Mar-29 19:25N 51°54' E 004°22'0 0.0
2015-Mar-29 18:31N 51°54' E 004°22'0 0.0
2015-Mar-29 17:28N 51°54' E 004°22'0 0.0
2015-Mar-29 16:29N 51°54' E 004°22'0 0.0
2015-Mar-29 15:28N 51°54' E 004°22'0 0.0
2015-Mar-29 14:31N 51°54' E 004°22'0 0.0
2015-Mar-29 13:31N 51°54' E 004°22'0 0.0
2015-Mar-29 12:16N 51°54' E 004°22'0 0.1
2015-Mar-29 11:34N 51°54' E 004°22'7 6.7
2015-Mar-29 10:33N 51°56' E 004°12'1211.8
2015-Mar-29 09:34N 52°01' E 003°54'1111.3
2015-Mar-29 08:33N 51°56' E 003°37'2 1.4
2015-Mar-29 07:20N 51°55' E 003°36'0 0.0
2015-Mar-29 06:17N 51°55' E 003°36'0 0.0
2015-Mar-29 05:29N 51°55' E 003°36'0 0.0
2015-Mar-29 04:11N 51°55' E 003°36'0 0.0
2015-Mar-29 00:26N 51°55' E 003°36'0 0.0
2015-Mar-28 22:26N 51°55' E 003°36'0 0.0
2015-Mar-28 21:29N 51°55' E 003°36'0 0.0
2015-Mar-28 20:17N 51°55' E 003°36'0 0.0
2015-Mar-28 19:20N 51°55' E 003°36'0 0.0
2015-Mar-28 18:23N 51°55' E 003°36'0 0.0
2015-Mar-28 17:29N 51°55' E 003°36'0 0.0
2015-Mar-28 16:26N 51°55' E 003°36'0 0.1
2015-Mar-28 15:32N 51°55' E 003°36'10 9.1
2015-Mar-28 14:29N 51°54' E 003°21'4210.8
2015-Mar-28 10:33N 51°34' E 002°20'1212.5
2015-Mar-28 09:33N 51°24' E 002°08'1211.9
2015-Mar-28 08:33N 51°13' E 001°60'1313.2
2015-Mar-28 07:34N 51°06' E 001°42'1414.1
2015-Mar-28 06:33N 50°56' E 001°27'234 4.7
2015-Mar-26 04:32N 53°32' W 003°18'1010.4
2015-Mar-26 03:33N 53°27' W 003°02'9 8.5
2015-Mar-26 02:33N 53°19' W 002°57'0 0.1
2015-Mar-26 01:33N 53°19' W 002°57'3 3.4
2015-Mar-26 00:33N 53°17' W 002°52'0 0.0
2015-Mar-24 04:33N 53°17' W 002°52'1 0.1
2015-Mar-23 15:34N 53°17' W 002°53'3 3.0
2015-Mar-23 14:33N 53°19' W 002°57'4 3.9
2015-Mar-23 13:34N 53°23' W 002°60'9 9.5
2015-Mar-23 12:34N 53°31' W 003°07'8 8.4
2015-Mar-23 11:33N 53°30' W 003°21'3 3.0
2015-Mar-23 10:31N 53°28' W 003°25'0 0.0
2015-Mar-23 09:25N 53°28' W 003°25'0 0.0
2015-Mar-23 08:31N 53°28' W 003°25'0 0.0
2015-Mar-23 07:25N 53°28' W 003°25'0 0.1
2015-Mar-23 06:31N 53°28' W 003°26'0 0.1
2015-Mar-23 05:31N 53°28' W 003°26'0 0.0
2015-Mar-23 04:25N 53°28' W 003°26'0 0.0
2015-Mar-23 03:31N 53°28' W 003°26'0 0.0
2015-Mar-23 02:31N 53°28' W 003°26'0 0.1
2015-Mar-23 01:31N 53°28' W 003°26'0 0.1
2015-Mar-23 00:32N 53°28' W 003°26'0 0.0
2015-Mar-22 23:31N 53°28' W 003°26'0 0.0
2015-Mar-22 22:31N 53°28' W 003°26'0 0.0
2015-Mar-22 21:25N 53°28' W 003°26'0 0.0
2015-Mar-22 20:31N 53°28' W 003°26'0 0.1
2015-Mar-22 19:25N 53°28' W 003°26'0 0.1
2015-Mar-22 18:25N 53°28' W 003°26'0 0.0
2015-Mar-22 17:31N 53°28' W 003°26'0 0.0
2015-Mar-22 16:31N 53°28' W 003°26'0 0.0
2015-Mar-22 15:31N 53°28' W 003°26'6 4.9
2015-Mar-22 14:16N 53°31' W 003°35'5812.1
2015-Mar-22 09:30N 53°57' W 005°02'1212.5
2015-Mar-22 08:30N 54°09' W 005°03'1212.5
2015-Mar-22 07:32N 54°21' W 005°05'1212.7
2015-Mar-22 06:33N 54°33' W 005°09'1111.0
2015-Mar-22 05:33N 54°44' W 005°14'1010.2
2015-Mar-22 04:33N 54°53' W 005°22'9 9.2
2015-Mar-22 03:33N 55°02' W 005°25'1110.7
2015-Mar-22 02:33N 55°12' W 005°18'1212.1
2015-Mar-22 01:33N 55°22' W 005°04'14 4.7
2015-Mar-21 22:33N 55°36' W 005°07'1 0.1
2015-Mar-21 14:17N 55°36' W 005°05'810.6
2015-Mar-21 13:33N 55°43' W 004°59'1212.2
2015-Mar-21 12:33N 55°55' W 004°55'9 9.1
2015-Mar-21 11:33N 55°56' W 004°39'9 8.9
2015-Mar-21 10:33N 55°54' W 004°24'0 0.1
2015-Mar-21 09:32N 55°54' W 004°24'0 0.0
2015-Mar-21 08:29N 55°54' W 004°24'0 0.0
2015-Mar-21 04:32N 55°54' W 004°24'  

Dump ship's entire track history